createdAt,value
2022-11-05T00:03:43.569Z,23.50
2022-11-05T00:14:06.639Z,24.70
2022-11-05T00:24:29.436Z,25.00
2022-11-05T00:34:33.196Z,23.90
2022-11-05T00:44:55.386Z,22.50
2022-11-05T00:54:59.058Z,22.30
2022-11-05T01:05:03.030Z,22.40
2022-11-05T01:15:07.409Z,22.70
2022-11-05T01:25:11.380Z,25.10
2022-11-05T01:35:17.075Z,21.40
2022-11-05T01:45:24.213Z,23.80
2022-11-05T01:55:33.227Z,22.10
2022-11-05T02:05:37.606Z,22.60
2022-11-05T02:16:07.062Z,22.00
2022-11-05T02:26:31.617Z,23.10
2022-11-05T02:36:49.919Z,21.90
2022-11-05T02:47:04.621Z,22.60
2022-11-05T02:57:08.128Z,18.80
2022-11-05T03:07:28.941Z,19.70
2022-11-05T03:17:45.514Z,19.20
2022-11-05T03:27:56.756Z,21.30
2022-11-05T03:38:10.037Z,18.10
2022-11-05T03:48:16.651Z,17.60
2022-11-05T03:58:23.090Z,16.70
2022-11-05T04:08:45.893Z,16.30
2022-11-05T04:18:49.759Z,11.20
2022-11-05T04:29:12.560Z,7.80
2022-11-05T04:39:17.885Z,6.90
2022-11-05T04:49:21.811Z,5.20
2022-11-05T04:59:25.508Z,4.00
2022-11-05T05:09:29.189Z,3.90
2022-11-05T05:19:53.098Z,3.90
2022-11-05T05:29:58.320Z,3.40
2022-11-05T05:40:02.058Z,3.40
2022-11-05T05:50:06.457Z,3.30
2022-11-05T06:00:11.362Z,3.30
2022-11-05T06:20:22.792Z,3.80
2022-11-05T06:30:26.446Z,4.40
2022-11-05T06:40:30.600Z,2.40
2022-11-05T06:50:34.774Z,1.80
2022-11-05T07:00:38.635Z,1.50
2022-11-05T07:10:42.756Z,1.90
2022-11-05T07:20:46.595Z,1.40
2022-11-05T07:30:50.783Z,1.50
2022-11-05T07:40:55.265Z,1.90
2022-11-05T07:50:59.057Z,1.40
2022-11-05T08:01:03.299Z,1.80
2022-11-05T08:11:09.893Z,1.00
2022-11-05T08:21:13.810Z,0.70
2022-11-05T08:31:18.902Z,1.70
2022-11-05T08:41:22.700Z,0.60
2022-11-05T08:51:26.859Z,0.70
2022-11-05T09:01:31.184Z,1.30
2022-11-05T09:12:05.170Z,1.20
2022-11-05T09:21:59.911Z,0.70
2022-11-05T09:32:04.436Z,0.90
2022-11-05T09:42:10.404Z,1.30
2022-11-05T09:52:21.378Z,1.40
2022-11-05T10:02:30.646Z,1.40
2022-11-05T10:12:47.659Z,1.30
2022-11-05T10:22:59.202Z,2.30
2022-11-05T10:33:07.159Z,1.50
2022-11-05T10:43:21.969Z,1.30
2022-11-05T10:53:40.981Z,1.50
2022-11-05T11:03:52.222Z,1.30
2022-11-05T11:13:58.871Z,0.90
2022-11-05T11:24:07.360Z,1.70
2022-11-05T11:34:27.109Z,1.60
2022-11-05T11:44:36.462Z,1.60
2022-11-05T11:54:40.953Z,1.40
2022-11-05T12:04:54.258Z,2.00
2022-11-05T12:15:15.809Z,2.30
2022-11-05T12:25:45.736Z,2.60
2022-11-05T12:36:04.784Z,3.00
2022-11-05T12:46:14.379Z,2.90
2022-11-05T12:56:42.119Z,1.50
2022-11-05T13:17:07.837Z,1.90
2022-11-05T13:27:45.495Z,3.40
2022-11-05T13:38:14.128Z,3.30
2022-11-05T13:48:43.288Z,3.70
2022-11-05T13:58:50.694Z,2.90
2022-11-05T14:09:08.193Z,7.70
2022-11-05T14:19:18.721Z,5.90
2022-11-05T14:29:25.255Z,3.30
2022-11-05T14:39:30.736Z,4.20
2022-11-05T14:49:54.689Z,4.50
2022-11-05T15:00:01.349Z,5.40
2022-11-05T15:10:12.897Z,6.00
2022-11-05T15:20:22.406Z,3.60
2022-11-05T15:30:26.903Z,4.50
2022-11-05T15:40:33.300Z,9.90
2022-11-05T15:50:37.868Z,17.60
2022-11-05T16:00:47.826Z,15.10
2022-11-05T16:10:54.431Z,13.30
2022-11-05T16:21:09.232Z,17.10
2022-11-05T16:31:13.722Z,18.20
2022-11-05T16:41:21.626Z,14.00
2022-11-05T17:01:33.135Z,19.80
2022-11-05T17:11:37.580Z,25.10
2022-11-05T17:21:43.199Z,22.10
2022-11-05T17:31:48.571Z,8.50
2022-11-05T17:41:55.637Z,10.10
2022-11-05T17:52:03.568Z,7.50
2022-11-05T18:02:11.801Z,6.00
2022-11-05T18:12:18.095Z,5.10
2022-11-05T18:22:25.026Z,4.50
2022-11-05T18:32:32.300Z,7.10
2022-11-05T18:42:38.929Z,4.20
2022-11-05T18:52:45.064Z,5.00
2022-11-05T19:02:49.978Z,5.80
2022-11-05T19:12:54.737Z,4.00
2022-11-05T19:22:59.605Z,4.40
2022-11-05T19:33:03.700Z,5.60
2022-11-05T19:43:09.200Z,6.10
2022-11-05T19:53:14.598Z,10.40
2022-11-05T20:03:20.857Z,6.80
2022-11-05T20:13:27.445Z,6.40
2022-11-05T20:23:34.820Z,6.80
2022-11-05T20:33:40.920Z,6.00
2022-11-05T20:43:47.600Z,6.20
2022-11-05T20:53:58.589Z,8.10
2022-11-05T21:04:05.063Z,7.50
2022-11-05T21:14:09.902Z,7.90
2022-11-05T21:24:15.319Z,6.90
2022-11-05T21:34:21.558Z,7.40
2022-11-05T21:44:26.746Z,9.10
2022-11-05T21:54:49.854Z,8.10
2022-11-05T22:04:57.796Z,9.00
2022-11-05T22:15:01.599Z,9.30
2022-11-05T22:25:06.066Z,8.90
2022-11-05T22:35:10.445Z,7.20
2022-11-05T22:45:14.221Z,9.80
2022-11-05T22:55:18.799Z,8.00
2022-11-05T23:05:22.883Z,8.10
2022-11-05T23:15:45.484Z,8.00
2022-11-05T23:25:49.245Z,5.60
2022-11-05T23:36:13.186Z,6.00
2022-11-05T23:46:35.680Z,5.10
2022-11-05T23:56:39.937Z,5.50
